sensor_id;sensor_type;location;lat;lon;timestamp;P1;durP1;ratioP1;P2;durP2;ratioP2
14994;SDS011;7593;49.006;8.372;2022-12-20T00:00:44;33.77;;;24.87;;
14994;SDS011;7593;49.006;8.372;2022-12-20T00:03:11;32.57;;;25.07;;
14994;SDS011;7593;49.006;8.372;2022-12-20T00:05:39;30.50;;;24.30;;
14994;SDS011;7593;49.006;8.372;2022-12-20T00:08:07;31.20;;;24.60;;
14994;SDS011;7593;49.006;8.372;2022-12-20T00:10:34;32.47;;;24.50;;
14994;SDS011;7593;49.006;8.372;2022-12-20T00:13:01;30.90;;;24.63;;
14994;SDS011;7593;49.006;8.372;2022-12-20T00:15:28;37.17;;;28.20;;
14994;SDS011;7593;49.006;8.372;2022-12-20T00:17:56;33.97;;;26.00;;
14994;SDS011;7593;49.006;8.372;2022-12-20T00:20:23;31.00;;;24.33;;
14994;SDS011;7593;49.006;8.372;2022-12-20T00:22:51;30.27;;;23.67;;
14994;SDS011;7593;49.006;8.372;2022-12-20T00:25:19;26.87;;;22.10;;
14994;SDS011;7593;49.006;8.372;2022-12-20T00:27:46;29.80;;;23.67;;
14994;SDS011;7593;49.006;8.372;2022-12-20T00:30:13;27.83;;;22.07;;
14994;SDS011;7593;49.006;8.372;2022-12-20T00:32:40;26.47;;;21.50;;
14994;SDS011;7593;49.006;8.372;2022-12-20T00:35:08;28.43;;;23.60;;
14994;SDS011;7593;49.006;8.372;2022-12-20T00:37:35;27.90;;;23.10;;
14994;SDS011;7593;49.006;8.372;2022-12-20T00:40:04;27.23;;;22.13;;
14994;SDS011;7593;49.006;8.372;2022-12-20T00:42:32;27.13;;;21.80;;
14994;SDS011;7593;49.006;8.372;2022-12-20T00:44:59;28.03;;;21.67;;
14994;SDS011;7593;49.006;8.372;2022-12-20T00:47:26;27.97;;;21.03;;
14994;SDS011;7593;49.006;8.372;2022-12-20T00:49:52;30.70;;;23.57;;
14994;SDS011;7593;49.006;8.372;2022-12-20T00:52:19;31.70;;;23.87;;
14994;SDS011;7593;49.006;8.372;2022-12-20T00:54:46;30.57;;;24.30;;
14994;SDS011;7593;49.006;8.372;2022-12-20T00:57:14;27.67;;;22.77;;
14994;SDS011;7593;49.006;8.372;2022-12-20T00:59:40;27.40;;;22.60;;
14994;SDS011;7593;49.006;8.372;2022-12-20T01:02:07;29.20;;;23.53;;
14994;SDS011;7593;49.006;8.372;2022-12-20T01:04:34;29.70;;;23.80;;
14994;SDS011;7593;49.006;8.372;2022-12-20T01:07:01;30.10;;;22.63;;
14994;SDS011;7593;49.006;8.372;2022-12-20T01:09:28;26.23;;;21.83;;
14994;SDS011;7593;49.006;8.372;2022-12-20T01:11:54;30.83;;;23.33;;
14994;SDS011;7593;49.006;8.372;2022-12-20T01:14:22;29.47;;;23.97;;
14994;SDS011;7593;49.006;8.372;2022-12-20T01:16:49;28.20;;;23.40;;
14994;SDS011;7593;49.006;8.372;2022-12-20T01:19:16;28.37;;;22.90;;
14994;SDS011;7593;49.006;8.372;2022-12-20T01:21:43;30.27;;;23.97;;
14994;SDS011;7593;49.006;8.372;2022-12-20T01:24:10;29.80;;;24.13;;
14994;SDS011;7593;49.006;8.372;2022-12-20T01:26:37;32.13;;;23.97;;
14994;SDS011;7593;49.006;8.372;2022-12-20T01:29:07;28.90;;;23.47;;
14994;SDS011;7593;49.006;8.372;2022-12-20T01:31:35;30.80;;;24.63;;
14994;SDS011;7593;49.006;8.372;2022-12-20T01:34:02;28.57;;;23.10;;
14994;SDS011;7593;49.006;8.372;2022-12-20T01:36:31;26.13;;;22.10;;
14994;SDS011;7593;49.006;8.372;2022-12-20T01:39:00;26.70;;;23.03;;
14994;SDS011;7593;49.006;8.372;2022-12-20T01:41:29;31.43;;;24.40;;
14994;SDS011;7593;49.006;8.372;2022-12-20T01:43:57;34.07;;;24.67;;
14994;SDS011;7593;49.006;8.372;2022-12-20T01:46:26;27.70;;;24.17;;
14994;SDS011;7593;49.006;8.372;2022-12-20T01:48:57;28.10;;;22.87;;
14994;SDS011;7593;49.006;8.372;2022-12-20T01:51:27;26.67;;;23.30;;
14994;SDS011;7593;49.006;8.372;2022-12-20T01:53:59;29.67;;;23.53;;
14994;SDS011;7593;49.006;8.372;2022-12-20T01:56:29;36.10;;;26.60;;
14994;SDS011;7593;49.006;8.372;2022-12-20T01:58:56;28.27;;;22.77;;
14994;SDS011;7593;49.006;8.372;2022-12-20T02:01:25;28.03;;;21.67;;
14994;SDS011;7593;49.006;8.372;2022-12-20T02:03:53;27.63;;;22.47;;
14994;SDS011;7593;49.006;8.372;2022-12-20T02:06:23;28.47;;;21.73;;
14994;SDS011;7593;49.006;8.372;2022-12-20T02:08:52;30.17;;;23.57;;
14994;SDS011;7593;49.006;8.372;2022-12-20T02:11:23;29.27;;;22.00;;
14994;SDS011;7593;49.006;8.372;2022-12-20T02:14:07;27.53;;;22.00;;
14994;SDS011;7593;49.006;8.372;2022-12-20T02:16:43;36.60;;;27.60;;
14994;SDS011;7593;49.006;8.372;2022-12-20T02:19:19;26.53;;;21.97;;
14994;SDS011;7593;49.006;8.372;2022-12-20T02:21:58;24.00;;;19.87;;
14994;SDS011;7593;49.006;8.372;2022-12-20T02:24:44;21.67;;;18.70;;
14994;SDS011;7593;49.006;8.372;2022-12-20T02:27:33;21.43;;;18.53;;
14994;SDS011;7593;49.006;8.372;2022-12-20T02:30:13;24.63;;;19.70;;
14994;SDS011;7593;49.006;8.372;2022-12-20T02:32:43;22.03;;;18.07;;
14994;SDS011;7593;49.006;8.372;2022-12-20T02:35:18;22.93;;;18.33;;
14994;SDS011;7593;49.006;8.372;2022-12-20T02:37:47;23.10;;;18.83;;
14994;SDS011;7593;49.006;8.372;2022-12-20T02:40:16;25.10;;;18.00;;
14994;SDS011;7593;49.006;8.372;2022-12-20T02:42:47;21.73;;;17.60;;
14994;SDS011;7593;49.006;8.372;2022-12-20T02:45:20;23.90;;;19.60;;
14994;SDS011;7593;49.006;8.372;2022-12-20T02:47:51;22.23;;;19.00;;
14994;SDS011;7593;49.006;8.372;2022-12-20T02:50:22;21.30;;;18.60;;
14994;SDS011;7593;49.006;8.372;2022-12-20T02:52:52;21.60;;;18.37;;
14994;SDS011;7593;49.006;8.372;2022-12-20T02:55:20;24.23;;;20.30;;
14994;SDS011;7593;49.006;8.372;2022-12-20T02:57:57;23.37;;;18.87;;
14994;SDS011;7593;49.006;8.372;2022-12-20T03:00:30;25.27;;;20.07;;
14994;SDS011;7593;49.006;8.372;2022-12-20T03:02:59;23.03;;;19.10;;
14994;SDS011;7593;49.006;8.372;2022-12-20T03:05:49;22.83;;;18.80;;
14994;SDS011;7593;49.006;8.372;2022-12-20T03:08:17;24.53;;;19.27;;
14994;SDS011;7593;49.006;8.372;2022-12-20T03:10:45;30.27;;;19.63;;
14994;SDS011;7593;49.006;8.372;2022-12-20T03:13:12;26.20;;;20.67;;
14994;SDS011;7593;49.006;8.372;2022-12-20T03:15:40;23.80;;;19.13;;
14994;SDS011;7593;49.006;8.372;2022-12-20T03:18:07;26.27;;;19.83;;
14994;SDS011;7593;49.006;8.372;2022-12-20T03:20:34;26.67;;;20.20;;
14994;SDS011;7593;49.006;8.372;2022-12-20T03:23:02;26.10;;;21.03;;
14994;SDS011;7593;49.006;8.372;2022-12-20T03:25:28;27.30;;;20.43;;
14994;SDS011;7593;49.006;8.372;2022-12-20T03:27:55;28.10;;;20.60;;
14994;SDS011;7593;49.006;8.372;2022-12-20T03:30:22;30.73;;;24.13;;
14994;SDS011;7593;49.006;8.372;2022-12-20T03:32:50;31.07;;;23.60;;
14994;SDS011;7593;49.006;8.372;2022-12-20T03:35:17;36.37;;;28.03;;
14994;SDS011;7593;49.006;8.372;2022-12-20T03:37:44;36.40;;;27.63;;
14994;SDS011;7593;49.006;8.372;2022-12-20T03:40:11;85.30;;;57.20;;
14994;SDS011;7593;49.006;8.372;2022-12-20T03:42:40;33.70;;;25.87;;
14994;SDS011;7593;49.006;8.372;2022-12-20T03:45:07;31.43;;;24.77;;
14994;SDS011;7593;49.006;8.372;2022-12-20T03:47:34;42.93;;;30.37;;
14994;SDS011;7593;49.006;8.372;2022-12-20T03:50:02;35.43;;;24.73;;
14994;SDS011;7593;49.006;8.372;2022-12-20T03:52:30;40.87;;;29.90;;
14994;SDS011;7593;49.006;8.372;2022-12-20T03:54:57;32.83;;;25.53;;
14994;SDS011;7593;49.006;8.372;2022-12-20T03:57:23;33.47;;;24.50;;
14994;SDS011;7593;49.006;8.372;2022-12-20T03:59:50;42.50;;;28.67;;
14994;SDS011;7593;49.006;8.372;2022-12-20T04:02:18;40.93;;;29.10;;
14994;SDS011;7593;49.006;8.372;2022-12-20T04:04:45;30.60;;;24.00;;
14994;SDS011;7593;49.006;8.372;2022-12-20T04:07:13;28.97;;;23.03;;
14994;SDS011;7593;49.006;8.372;2022-12-20T04:09:40;31.37;;;23.10;;
14994;SDS011;7593;49.006;8.372;2022-12-20T04:12:07;25.17;;;21.13;;
14994;SDS011;7593;49.006;8.372;2022-12-20T04:14:34;29.63;;;22.23;;
14994;SDS011;7593;49.006;8.372;2022-12-20T04:17:01;28.27;;;21.23;;
14994;SDS011;7593;49.006;8.372;2022-12-20T04:19:28;26.50;;;21.57;;
14994;SDS011;7593;49.006;8.372;2022-12-20T04:21:55;37.70;;;29.57;;
14994;SDS011;7593;49.006;8.372;2022-12-20T04:24:24;29.03;;;24.27;;
14994;SDS011;7593;49.006;8.372;2022-12-20T04:26:50;29.27;;;22.57;;
14994;SDS011;7593;49.006;8.372;2022-12-20T04:29:17;25.07;;;21.07;;
14994;SDS011;7593;49.006;8.372;2022-12-20T04:31:44;26.17;;;20.80;;
14994;SDS011;7593;49.006;8.372;2022-12-20T04:34:11;25.93;;;20.67;;
14994;SDS011;7593;49.006;8.372;2022-12-20T04:36:37;26.67;;;20.37;;
14994;SDS011;7593;49.006;8.372;2022-12-20T04:39:04;27.63;;;21.53;;
14994;SDS011;7593;49.006;8.372;2022-12-20T04:41:32;26.57;;;21.30;;
14994;SDS011;7593;49.006;8.372;2022-12-20T04:43:59;22.77;;;19.53;;
14994;SDS011;7593;49.006;8.372;2022-12-20T04:46:26;24.63;;;20.10;;
14994;SDS011;7593;49.006;8.372;2022-12-20T04:48:52;24.67;;;20.17;;
14994;SDS011;7593;49.006;8.372;2022-12-20T04:51:20;26.30;;;19.97;;
14994;SDS011;7593;49.006;8.372;2022-12-20T04:53:46;26.57;;;19.73;;
14994;SDS011;7593;49.006;8.372;2022-12-20T04:56:13;22.20;;;18.87;;
14994;SDS011;7593;49.006;8.372;2022-12-20T04:58:42;23.93;;;19.23;;
14994;SDS011;7593;49.006;8.372;2022-12-20T05:01:09;26.90;;;18.93;;
14994;SDS011;7593;49.006;8.372;2022-12-20T05:03:36;25.93;;;19.47;;
14994;SDS011;7593;49.006;8.372;2022-12-20T05:06:03;22.13;;;18.63;;
14994;SDS011;7593;49.006;8.372;2022-12-20T05:08:31;24.60;;;19.10;;
14994;SDS011;7593;49.006;8.372;2022-12-20T05:10:57;22.13;;;18.77;;
14994;SDS011;7593;49.006;8.372;2022-12-20T05:13:24;24.90;;;18.63;;
14994;SDS011;7593;49.006;8.372;2022-12-20T05:15:53;22.77;;;19.70;;
14994;SDS011;7593;49.006;8.372;2022-12-20T05:18:21;23.33;;;18.50;;
14994;SDS011;7593;49.006;8.372;2022-12-20T05:20:48;22.70;;;19.07;;
14994;SDS011;7593;49.006;8.372;2022-12-20T05:23:36;21.53;;;18.73;;
14994;SDS011;7593;49.006;8.372;2022-12-20T05:26:21;25.33;;;18.97;;
14994;SDS011;7593;49.006;8.372;2022-12-20T05:28:48;22.10;;;18.50;;
14994;SDS011;7593;49.006;8.372;2022-12-20T05:31:17;24.43;;;18.10;;
14994;SDS011;7593;49.006;8.372;2022-12-20T05:33:44;24.70;;;18.47;;
14994;SDS011;7593;49.006;8.372;2022-12-20T05:36:11;22.73;;;19.47;;
14994;SDS011;7593;49.006;8.372;2022-12-20T05:38:38;21.30;;;18.93;;
14994;SDS011;7593;49.006;8.372;2022-12-20T05:41:04;21.17;;;18.43;;
14994;SDS011;7593;49.006;8.372;2022-12-20T05:43:32;22.17;;;18.00;;
14994;SDS011;7593;49.006;8.372;2022-12-20T05:45:59;24.33;;;18.63;;
14994;SDS011;7593;49.006;8.372;2022-12-20T05:48:27;23.23;;;19.10;;
14994;SDS011;7593;49.006;8.372;2022-12-20T05:50:54;23.80;;;18.00;;
14994;SDS011;7593;49.006;8.372;2022-12-20T05:53:21;22.57;;;17.57;;
14994;SDS011;7593;49.006;8.372;2022-12-20T05:55:49;24.67;;;17.67;;
14994;SDS011;7593;49.006;8.372;2022-12-20T05:58:17;22.50;;;17.43;;
14994;SDS011;7593;49.006;8.372;2022-12-20T06:00:44;23.53;;;18.50;;
14994;SDS011;7593;49.006;8.372;2022-12-20T06:03:11;21.43;;;16.87;;
14994;SDS011;7593;49.006;8.372;2022-12-20T06:05:40;25.70;;;17.80;;
14994;SDS011;7593;49.006;8.372;2022-12-20T06:08:08;22.00;;;16.73;;
14994;SDS011;7593;49.006;8.372;2022-12-20T06:10:35;21.20;;;17.00;;
14994;SDS011;7593;49.006;8.372;2022-12-20T06:13:02;21.70;;;17.13;;
14994;SDS011;7593;49.006;8.372;2022-12-20T06:15:29;22.53;;;17.63;;
14994;SDS011;7593;49.006;8.372;2022-12-20T06:17:57;20.37;;;16.60;;
14994;SDS011;7593;49.006;8.372;2022-12-20T06:20:24;19.97;;;16.70;;
14994;SDS011;7593;49.006;8.372;2022-12-20T06:22:52;23.03;;;17.53;;
14994;SDS011;7593;49.006;8.372;2022-12-20T06:25:19;20.80;;;16.07;;
14994;SDS011;7593;49.006;8.372;2022-12-20T06:27:45;16.83;;;14.03;;
14994;SDS011;7593;49.006;8.372;2022-12-20T06:30:12;18.00;;;13.13;;
14994;SDS011;7593;49.006;8.372;2022-12-20T06:32:40;16.10;;;11.77;;
14994;SDS011;7593;49.006;8.372;2022-12-20T06:35:07;13.60;;;11.90;;
14994;SDS011;7593;49.006;8.372;2022-12-20T06:37:34;14.20;;;11.77;;
14994;SDS011;7593;49.006;8.372;2022-12-20T06:40:03;17.30;;;11.43;;
14994;SDS011;7593;49.006;8.372;2022-12-20T06:42:30;15.30;;;12.27;;
14994;SDS011;7593;49.006;8.372;2022-12-20T06:44:57;14.47;;;11.53;;
14994;SDS011;7593;49.006;8.372;2022-12-20T06:47:24;15.63;;;11.67;;
14994;SDS011;7593;49.006;8.372;2022-12-20T06:49:50;14.37;;;10.83;;
14994;SDS011;7593;49.006;8.372;2022-12-20T06:52:17;14.03;;;11.23;;
14994;SDS011;7593;49.006;8.372;2022-12-20T06:54:44;13.13;;;9.93;;
14994;SDS011;7593;49.006;8.372;2022-12-20T06:57:12;13.50;;;11.57;;
14994;SDS011;7593;49.006;8.372;2022-12-20T06:59:39;11.27;;;10.07;;
14994;SDS011;7593;49.006;8.372;2022-12-20T07:02:06;12.73;;;11.00;;
14994;SDS011;7593;49.006;8.372;2022-12-20T07:04:34;11.07;;;9.57;;
14994;SDS011;7593;49.006;8.372;2022-12-20T07:07:01;12.33;;;9.80;;
14994;SDS011;7593;49.006;8.372;2022-12-20T07:09:28;12.93;;;9.93;;
14994;SDS011;7593;49.006;8.372;2022-12-20T07:11:55;12.93;;;10.00;;
14994;SDS011;7593;49.006;8.372;2022-12-20T07:14:23;12.47;;;10.47;;
14994;SDS011;7593;49.006;8.372;2022-12-20T07:16:50;14.13;;;10.50;;
14994;SDS011;7593;49.006;8.372;2022-12-20T07:19:17;13.30;;;10.17;;
14994;SDS011;7593;49.006;8.372;2022-12-20T07:21:46;12.37;;;9.67;;
14994;SDS011;7593;49.006;8.372;2022-12-20T07:24:13;11.07;;;9.87;;
14994;SDS011;7593;49.006;8.372;2022-12-20T07:26:39;15.53;;;11.40;;
14994;SDS011;7593;49.006;8.372;2022-12-20T07:29:06;15.73;;;12.20;;
14994;SDS011;7593;49.006;8.372;2022-12-20T07:31:34;15.77;;;11.63;;
14994;SDS011;7593;49.006;8.372;2022-12-20T07:34:01;14.40;;;11.47;;
14994;SDS011;7593;49.006;8.372;2022-12-20T07:36:28;12.87;;;9.93;;
14994;SDS011;7593;49.006;8.372;2022-12-20T07:38:55;11.90;;;10.03;;
14994;SDS011;7593;49.006;8.372;2022-12-20T07:41:22;11.40;;;9.63;;
14994;SDS011;7593;49.006;8.372;2022-12-20T07:43:50;12.07;;;9.90;;
14994;SDS011;7593;49.006;8.372;2022-12-20T07:46:16;17.50;;;12.67;;
14994;SDS011;7593;49.006;8.372;2022-12-20T07:48:45;13.70;;;10.77;;
14994;SDS011;7593;49.006;8.372;2022-12-20T07:51:13;14.10;;;10.83;;
14994;SDS011;7593;49.006;8.372;2022-12-20T07:53:44;11.40;;;10.17;;
14994;SDS011;7593;49.006;8.372;2022-12-20T07:56:15;18.20;;;10.70;;
14994;SDS011;7593;49.006;8.372;2022-12-20T07:58:43;12.73;;;10.60;;
14994;SDS011;7593;49.006;8.372;2022-12-20T08:01:10;12.60;;;10.17;;
14994;SDS011;7593;49.006;8.372;2022-12-20T08:03:40;12.40;;;9.80;;
14994;SDS011;7593;49.006;8.372;2022-12-20T08:06:10;13.73;;;10.37;;
14994;SDS011;7593;49.006;8.372;2022-12-20T08:08:39;11.80;;;10.40;;
14994;SDS011;7593;49.006;8.372;2022-12-20T08:11:10;24.20;;;14.50;;
14994;SDS011;7593;49.006;8.372;2022-12-20T08:13:37;18.17;;;10.90;;
14994;SDS011;7593;49.006;8.372;2022-12-20T08:16:05;19.00;;;13.17;;
14994;SDS011;7593;49.006;8.372;2022-12-20T08:18:33;17.17;;;11.90;;
14994;SDS011;7593;49.006;8.372;2022-12-20T08:20:59;14.77;;;11.67;;
14994;SDS011;7593;49.006;8.372;2022-12-20T08:23:27;15.10;;;11.13;;
14994;SDS011;7593;49.006;8.372;2022-12-20T08:25:54;11.67;;;9.83;;
14994;SDS011;7593;49.006;8.372;2022-12-20T08:28:21;12.50;;;9.90;;
14994;SDS011;7593;49.006;8.372;2022-12-20T08:30:49;11.63;;;9.77;;
14994;SDS011;7593;49.006;8.372;2022-12-20T08:33:15;13.33;;;10.53;;
14994;SDS011;7593;49.006;8.372;2022-12-20T08:35:42;14.37;;;10.40;;
14994;SDS011;7593;49.006;8.372;2022-12-20T08:38:09;11.97;;;9.90;;
14994;SDS011;7593;49.006;8.372;2022-12-20T08:40:37;13.37;;;10.40;;
14994;SDS011;7593;49.006;8.372;2022-12-20T08:43:04;17.70;;;13.30;;
14994;SDS011;7593;49.006;8.372;2022-12-20T08:45:30;21.73;;;15.03;;
14994;SDS011;7593;49.006;8.372;2022-12-20T08:47:57;18.73;;;13.57;;
14994;SDS011;7593;49.006;8.372;2022-12-20T08:50:24;27.77;;;18.03;;
14994;SDS011;7593;49.006;8.372;2022-12-20T08:52:51;18.53;;;14.00;;
14994;SDS011;7593;49.006;8.372;2022-12-20T08:55:17;15.70;;;13.17;;
14994;SDS011;7593;49.006;8.372;2022-12-20T08:57:46;18.03;;;12.17;;
14994;SDS011;7593;49.006;8.372;2022-12-20T09:00:13;16.53;;;12.40;;
14994;SDS011;7593;49.006;8.372;2022-12-20T09:02:40;12.47;;;10.63;;
14994;SDS011;7593;49.006;8.372;2022-12-20T09:05:07;15.10;;;11.23;;
14994;SDS011;7593;49.006;8.372;2022-12-20T09:07:34;14.07;;;11.10;;
14994;SDS011;7593;49.006;8.372;2022-12-20T09:10:01;36.53;;;20.60;;
14994;SDS011;7593;49.006;8.372;2022-12-20T09:12:28;34.23;;;19.67;;
14994;SDS011;7593;49.006;8.372;2022-12-20T09:14:56;28.67;;;16.73;;
14994;SDS011;7593;49.006;8.372;2022-12-20T09:17:22;23.20;;;13.60;;
14994;SDS011;7593;49.006;8.372;2022-12-20T09:19:49;15.67;;;12.17;;
14994;SDS011;7593;49.006;8.372;2022-12-20T09:22:16;13.63;;;10.73;;
14994;SDS011;7593;49.006;8.372;2022-12-20T09:24:42;13.07;;;10.80;;
14994;SDS011;7593;49.006;8.372;2022-12-20T09:27:09;15.53;;;11.33;;
14994;SDS011;7593;49.006;8.372;2022-12-20T09:29:36;15.43;;;10.35;;
14994;SDS011;7593;49.006;8.372;2022-12-20T09:32:04;13.87;;;11.10;;
14994;SDS011;7593;49.006;8.372;2022-12-20T09:34:31;15.93;;;10.75;;
14994;SDS011;7593;49.006;8.372;2022-12-20T09:36:58;15.07;;;11.10;;
14994;SDS011;7593;49.006;8.372;2022-12-20T09:39:25;17.17;;;12.18;;
14994;SDS011;7593;49.006;8.372;2022-12-20T09:41:51;14.07;;;10.95;;
14994;SDS011;7593;49.006;8.372;2022-12-20T09:44:19;13.15;;;10.27;;
14994;SDS011;7593;49.006;8.372;2022-12-20T09:46:51;12.50;;;9.90;;
14994;SDS011;7593;49.006;8.372;2022-12-20T09:49:26;15.00;;;9.98;;
14994;SDS011;7593;49.006;8.372;2022-12-20T09:52:09;14.13;;;9.48;;
14994;SDS011;7593;49.006;8.372;2022-12-20T09:54:55;10.68;;;8.98;;
14994;SDS011;7593;49.006;8.372;2022-12-20T09:57:33;12.55;;;9.93;;
14994;SDS011;7593;49.006;8.372;2022-12-20T10:00:13;12.43;;;9.85;;
14994;SDS011;7593;49.006;8.372;2022-12-20T10:02:41;11.00;;;9.85;;
14994;SDS011;7593;49.006;8.372;2022-12-20T10:05:12;10.48;;;9.25;;
14994;SDS011;7593;49.006;8.372;2022-12-20T10:07:45;13.10;;;9.73;;
14994;SDS011;7593;49.006;8.372;2022-12-20T10:10:23;12.90;;;9.85;;
14994;SDS011;7593;49.006;8.372;2022-12-20T10:13:08;12.25;;;10.20;;
14994;SDS011;7593;49.006;8.372;2022-12-20T10:15:42;13.50;;;9.88;;
14994;SDS011;7593;49.006;8.372;2022-12-20T10:18:18;11.00;;;9.52;;
14994;SDS011;7593;49.006;8.372;2022-12-20T10:20:58;11.18;;;9.52;;
14994;SDS011;7593;49.006;8.372;2022-12-20T10:23:32;11.07;;;9.10;;
14994;SDS011;7593;49.006;8.372;2022-12-20T10:26:07;13.18;;;9.98;;
14994;SDS011;7593;49.006;8.372;2022-12-20T10:28:35;10.98;;;9.65;;
14994;SDS011;7593;49.006;8.372;2022-12-20T10:31:04;14.10;;;12.00;;
14994;SDS011;7593;49.006;8.372;2022-12-20T10:33:32;11.88;;;9.18;;
14994;SDS011;7593;49.006;8.372;2022-12-20T10:36:17;10.23;;;8.50;;
14994;SDS011;7593;49.006;8.372;2022-12-20T10:38:49;11.68;;;9.80;;
14994;SDS011;7593;49.006;8.372;2022-12-20T10:41:17;12.00;;;9.85;;
14994;SDS011;7593;49.006;8.372;2022-12-20T10:43:46;12.00;;;9.43;;
14994;SDS011;7593;49.006;8.372;2022-12-20T10:46:16;13.95;;;9.98;;
14994;SDS011;7593;49.006;8.372;2022-12-20T10:48:43;13.65;;;10.43;;
14994;SDS011;7593;49.006;8.372;2022-12-20T10:51:15;12.93;;;11.50;;
14994;SDS011;7593;49.006;8.372;2022-12-20T10:53:52;13.20;;;10.00;;
14994;SDS011;7593;49.006;8.372;2022-12-20T10:56:22;12.38;;;9.70;;
14994;SDS011;7593;49.006;8.372;2022-12-20T10:58:52;13.02;;;9.40;;
14994;SDS011;7593;49.006;8.372;2022-12-20T11:01:21;13.75;;;10.05;;
14994;SDS011;7593;49.006;8.372;2022-12-20T11:03:53;11.48;;;9.60;;
14994;SDS011;7593;49.006;8.372;2022-12-20T11:06:23;13.18;;;10.40;;
14994;SDS011;7593;49.006;8.372;2022-12-20T11:08:52;14.05;;;10.43;;
14994;SDS011;7593;49.006;8.372;2022-12-20T11:11:19;12.18;;;10.45;;
14994;SDS011;7593;49.006;8.372;2022-12-20T11:13:47;16.25;;;11.50;;
14994;SDS011;7593;49.006;8.372;2022-12-20T11:16:23;15.95;;;11.60;;
14994;SDS011;7593;49.006;8.372;2022-12-20T11:19:02;14.82;;;10.80;;
14994;SDS011;7593;49.006;8.372;2022-12-20T11:21:39;16.13;;;11.00;;
14994;SDS011;7593;49.006;8.372;2022-12-20T11:24:11;13.98;;;11.02;;
14994;SDS011;7593;49.006;8.372;2022-12-20T11:26:51;17.55;;;11.73;;
14994;SDS011;7593;49.006;8.372;2022-12-20T11:29:36;12.40;;;9.73;;
14994;SDS011;7593;49.006;8.372;2022-12-20T11:32:19;11.32;;;9.50;;
14994;SDS011;7593;49.006;8.372;2022-12-20T11:34:56;11.27;;;10.02;;
14994;SDS011;7593;49.006;8.372;2022-12-20T11:37:36;11.75;;;10.55;;
14994;SDS011;7593;49.006;8.372;2022-12-20T11:40:15;14.00;;;10.55;;
14994;SDS011;7593;49.006;8.372;2022-12-20T11:42:56;11.68;;;9.52;;
14994;SDS011;7593;49.006;8.372;2022-12-20T11:45:36;12.32;;;9.98;;
14994;SDS011;7593;49.006;8.372;2022-12-20T11:48:14;11.55;;;9.85;;
14994;SDS011;7593;49.006;8.372;2022-12-20T11:50:57;11.75;;;9.50;;
14994;SDS011;7593;49.006;8.372;2022-12-20T11:53:31;17.45;;;12.55;;
14994;SDS011;7593;49.006;8.372;2022-12-20T11:56:05;16.02;;;12.18;;
14994;SDS011;7593;49.006;8.372;2022-12-20T11:58:43;16.40;;;12.65;;
14994;SDS011;7593;49.006;8.372;2022-12-20T12:01:16;19.23;;;13.85;;
14994;SDS011;7593;49.006;8.372;2022-12-20T12:03:47;13.23;;;10.85;;
14994;SDS011;7593;49.006;8.372;2022-12-20T12:06:26;18.45;;;13.88;;
14994;SDS011;7593;49.006;8.372;2022-12-20T12:08:59;13.65;;;10.93;;
14994;SDS011;7593;49.006;8.372;2022-12-20T12:11:39;12.77;;;10.70;;
14994;SDS011;7593;49.006;8.372;2022-12-20T12:14:14;13.95;;;11.35;;
14994;SDS011;7593;49.006;8.372;2022-12-20T12:16:46;14.25;;;10.65;;
14994;SDS011;7593;49.006;8.372;2022-12-20T12:19:18;13.85;;;10.00;;
14994;SDS011;7593;49.006;8.372;2022-12-20T12:21:46;14.05;;;10.60;;
14994;SDS011;7593;49.006;8.372;2022-12-20T12:24:25;13.38;;;10.10;;
14994;SDS011;7593;49.006;8.372;2022-12-20T12:26:58;11.55;;;10.05;;
14994;SDS011;7593;49.006;8.372;2022-12-20T12:29:28;12.90;;;10.20;;
14994;SDS011;7593;49.006;8.372;2022-12-20T12:31:59;11.93;;;10.63;;
14994;SDS011;7593;49.006;8.372;2022-12-20T12:34:36;13.55;;;9.75;;
14994;SDS011;7593;49.006;8.372;2022-12-20T12:40:13;12.95;;;11.45;;
14994;SDS011;7593;49.006;8.372;2022-12-20T12:45:50;12.02;;;10.18;;
14994;SDS011;7593;49.006;8.372;2022-12-20T12:48:21;13.07;;;10.48;;
14994;SDS011;7593;49.006;8.372;2022-12-20T12:50:54;15.20;;;11.27;;
14994;SDS011;7593;49.006;8.372;2022-12-20T12:53:24;10.77;;;9.52;;
14994;SDS011;7593;49.006;8.372;2022-12-20T12:55:58;12.15;;;10.20;;
14994;SDS011;7593;49.006;8.372;2022-12-20T13:02:22;13.27;;;10.00;;
14994;SDS011;7593;49.006;8.372;2022-12-20T13:05:00;13.15;;;10.38;;
14994;SDS011;7593;49.006;8.372;2022-12-20T13:07:48;12.95;;;10.50;;
14994;SDS011;7593;49.006;8.372;2022-12-20T13:13:21;12.48;;;9.80;;
14994;SDS011;7593;49.006;8.372;2022-12-20T13:21:28;11.07;;;9.90;;
14994;SDS011;7593;49.006;8.372;2022-12-20T13:27:17;11.20;;;9.95;;
14994;SDS011;7593;49.006;8.372;2022-12-20T13:35:54;14.30;;;9.98;;
14994;SDS011;7593;49.006;8.372;2022-12-20T13:44:18;13.25;;;10.75;;
14994;SDS011;7593;49.006;8.372;2022-12-20T13:49:59;12.45;;;11.10;;
14994;SDS011;7593;49.006;8.372;2022-12-20T13:52:28;13.85;;;11.15;;
14994;SDS011;7593;49.006;8.372;2022-12-20T13:54:57;15.90;;;11.45;;
14994;SDS011;7593;49.006;8.372;2022-12-20T13:57:29;13.27;;;10.25;;
14994;SDS011;7593;49.006;8.372;2022-12-20T14:00:05;14.52;;;10.88;;
14994;SDS011;7593;49.006;8.372;2022-12-20T14:02:40;12.35;;;10.95;;
14994;SDS011;7593;49.006;8.372;2022-12-20T14:05:13;12.32;;;10.52;;
14994;SDS011;7593;49.006;8.372;2022-12-20T14:07:44;16.70;;;10.30;;
14994;SDS011;7593;49.006;8.372;2022-12-20T14:10:16;12.93;;;10.15;;
14994;SDS011;7593;49.006;8.372;2022-12-20T14:12:45;14.38;;;10.82;;
14994;SDS011;7593;49.006;8.372;2022-12-20T14:15:19;12.90;;;10.85;;
14994;SDS011;7593;49.006;8.372;2022-12-20T14:17:52;14.32;;;10.88;;
14994;SDS011;7593;49.006;8.372;2022-12-20T14:20:21;14.05;;;11.35;;
14994;SDS011;7593;49.006;8.372;2022-12-20T14:22:52;13.10;;;10.73;;
14994;SDS011;7593;49.006;8.372;2022-12-20T14:25:26;12.35;;;9.98;;
14994;SDS011;7593;49.006;8.372;2022-12-20T14:27:57;13.32;;;10.80;;
14994;SDS011;7593;49.006;8.372;2022-12-20T14:30:25;14.98;;;10.90;;
14994;SDS011;7593;49.006;8.372;2022-12-20T14:32:57;17.05;;;11.95;;
14994;SDS011;7593;49.006;8.372;2022-12-20T14:35:24;16.70;;;12.93;;
14994;SDS011;7593;49.006;8.372;2022-12-20T14:37:53;17.33;;;13.07;;
14994;SDS011;7593;49.006;8.372;2022-12-20T14:40:22;16.98;;;13.52;;
14994;SDS011;7593;49.006;8.372;2022-12-20T14:42:49;15.48;;;12.55;;
14994;SDS011;7593;49.006;8.372;2022-12-20T14:45:20;16.10;;;12.15;;
14994;SDS011;7593;49.006;8.372;2022-12-20T14:47:50;15.32;;;11.52;;
14994;SDS011;7593;49.006;8.372;2022-12-20T14:50:25;19.92;;;12.85;;
14994;SDS011;7593;49.006;8.372;2022-12-20T14:52:55;18.65;;;13.23;;
14994;SDS011;7593;49.006;8.372;2022-12-20T14:55:23;20.27;;;13.40;;
14994;SDS011;7593;49.006;8.372;2022-12-20T14:57:54;20.75;;;15.00;;
14994;SDS011;7593;49.006;8.372;2022-12-20T15:00:22;21.83;;;14.48;;
14994;SDS011;7593;49.006;8.372;2022-12-20T15:02:56;17.35;;;14.13;;
14994;SDS011;7593;49.006;8.372;2022-12-20T15:05:47;19.83;;;15.60;;
14994;SDS011;7593;49.006;8.372;2022-12-20T15:08:16;20.05;;;16.65;;
14994;SDS011;7593;49.006;8.372;2022-12-20T15:10:54;21.58;;;16.92;;
14994;SDS011;7593;49.006;8.372;2022-12-20T15:13:24;20.90;;;14.98;;
14994;SDS011;7593;49.006;8.372;2022-12-20T15:15:54;28.95;;;24.98;;
14994;SDS011;7593;49.006;8.372;2022-12-20T15:18:23;27.98;;;22.60;;
14994;SDS011;7593;49.006;8.372;2022-12-20T15:20:54;22.10;;;17.65;;
14994;SDS011;7593;49.006;8.372;2022-12-20T15:23:26;21.63;;;17.55;;
14994;SDS011;7593;49.006;8.372;2022-12-20T15:25:54;19.10;;;15.38;;
14994;SDS011;7593;49.006;8.372;2022-12-20T15:28:21;20.23;;;17.35;;